createdAt,value
2019-03-18T00:01:27.332Z,5.40
2019-03-18T00:03:53.832Z,5.40
2019-03-18T00:06:20.049Z,5.20
2019-03-18T00:08:46.113Z,5.20
2019-03-18T00:11:12.258Z,5.10
2019-03-18T00:13:38.322Z,5.00
2019-03-18T00:16:04.514Z,5.10
2019-03-18T00:18:30.655Z,5.10
2019-03-18T00:20:57.084Z,5.10
2019-03-18T00:23:23.315Z,5.20
2019-03-18T00:25:49.541Z,5.20
2019-03-18T00:28:15.746Z,5.30
2019-03-18T00:30:41.822Z,5.30
2019-03-18T00:33:08.063Z,5.30
2019-03-18T00:35:34.283Z,5.40
2019-03-18T00:38:00.508Z,5.40
2019-03-18T00:40:26.676Z,5.40
2019-03-18T00:42:53.117Z,5.40
2019-03-18T00:45:19.342Z,5.40
2019-03-18T00:47:45.570Z,5.40
2019-03-18T00:50:15.568Z,5.20
2019-03-18T00:52:42.168Z,5.10
2019-03-18T00:55:08.657Z,4.90
2019-03-18T00:57:35.002Z,5.00
2019-03-18T01:00:01.446Z,4.90
2019-03-18T01:02:27.681Z,4.80
2019-03-18T01:04:54.011Z,4.60
2019-03-18T01:07:20.130Z,4.60
2019-03-18T01:09:46.345Z,4.60
2019-03-18T01:12:12.564Z,4.60
2019-03-18T01:14:38.665Z,4.60
2019-03-18T01:17:04.790Z,4.60
2019-03-18T01:19:30.861Z,4.50
2019-03-18T01:21:57.190Z,4.40
2019-03-18T01:24:23.334Z,4.50
2019-03-18T01:26:49.549Z,4.40
2019-03-18T01:29:16.470Z,4.50
2019-03-18T01:31:42.867Z,4.60
2019-03-18T01:34:09.024Z,4.70
2019-03-18T01:36:35.249Z,4.60
2019-03-18T01:39:01.638Z,4.70
2019-03-18T01:41:27.861Z,4.70
2019-03-18T01:43:53.939Z,4.70
2019-03-18T01:46:20.089Z,4.60
2019-03-18T01:48:46.315Z,4.60
2019-03-18T01:51:12.541Z,4.50
2019-03-18T01:53:38.677Z,4.50
2019-03-18T01:56:04.902Z,4.50
2019-03-18T01:58:31.091Z,4.60
2019-03-18T02:00:57.201Z,4.40
2019-03-18T02:03:23.348Z,4.50
2019-03-18T02:05:49.421Z,4.40
2019-03-18T02:08:15.528Z,4.40
2019-03-18T02:10:41.651Z,4.50
2019-03-18T02:13:07.907Z,4.50
2019-03-18T02:15:34.087Z,4.30
2019-03-18T02:18:00.248Z,4.30
2019-03-18T02:20:26.977Z,4.40
2019-03-18T02:22:53.143Z,4.50
2019-03-18T02:25:19.242Z,4.40
2019-03-18T02:27:45.413Z,4.30
2019-03-18T02:30:15.860Z,4.30
2019-03-18T02:32:42.069Z,4.30
2019-03-18T02:35:08.541Z,4.30
2019-03-18T02:37:34.776Z,4.30
2019-03-18T02:40:01.183Z,4.30
2019-03-18T02:42:27.412Z,4.40
2019-03-18T02:44:53.532Z,4.40
2019-03-18T02:47:19.717Z,4.30
2019-03-18T02:49:45.827Z,4.20
2019-03-18T02:52:11.940Z,4.30
2019-03-18T02:54:38.042Z,4.30
2019-03-18T02:57:04.173Z,4.30
2019-03-18T02:59:30.284Z,4.30
2019-03-18T03:01:56.362Z,4.30
2019-03-18T03:04:22.505Z,4.30
2019-03-18T03:06:48.562Z,4.20
2019-03-18T03:09:14.711Z,4.20
2019-03-18T03:11:40.856Z,4.20
2019-03-18T03:14:07.033Z,4.30
2019-03-18T03:16:33.167Z,4.20
2019-03-18T03:18:59.444Z,4.10
2019-03-18T03:21:25.518Z,4.10
2019-03-18T03:23:51.986Z,4.10
2019-03-18T03:26:18.065Z,4.00
2019-03-18T03:28:44.227Z,4.10
2019-03-18T03:31:10.354Z,4.00
2019-03-18T03:33:36.545Z,3.90
2019-03-18T03:36:02.851Z,3.90
2019-03-18T03:38:28.934Z,3.90
2019-03-18T03:40:55.063Z,3.70
2019-03-18T03:43:21.281Z,3.70
2019-03-18T03:45:47.475Z,3.70
2019-03-18T03:48:13.554Z,3.70
2019-03-18T03:50:39.820Z,3.60
2019-03-18T03:53:05.937Z,3.70
2019-03-18T03:55:32.028Z,3.70
2019-03-18T03:57:58.146Z,3.70
2019-03-18T04:00:24.586Z,3.70
2019-03-18T04:02:50.759Z,3.70
2019-03-18T04:05:17.006Z,3.60
2019-03-18T04:07:43.242Z,3.50
2019-03-18T04:10:10.767Z,3.50
2019-03-18T04:12:36.953Z,3.60
2019-03-18T04:15:06.153Z,3.60
2019-03-18T04:17:32.273Z,3.60
2019-03-18T04:19:58.397Z,3.50
2019-03-18T04:22:24.630Z,3.40
2019-03-18T04:24:50.757Z,3.40
2019-03-18T04:27:16.952Z,3.50
2019-03-18T04:29:43.338Z,3.40
2019-03-18T04:32:09.850Z,3.40
2019-03-18T04:34:36.074Z,3.40
2019-03-18T04:37:02.205Z,3.40
2019-03-18T04:39:28.439Z,3.30
2019-03-18T04:41:54.618Z,3.40
2019-03-18T04:44:20.930Z,3.40
2019-03-18T04:46:47.054Z,3.40
2019-03-18T04:49:13.198Z,3.30
2019-03-18T04:51:39.436Z,3.20
2019-03-18T04:54:05.547Z,3.10
2019-03-18T04:56:31.762Z,3.20
2019-03-18T04:58:57.956Z,3.20
2019-03-18T05:01:24.220Z,3.30
2019-03-18T05:03:50.363Z,3.20
2019-03-18T05:06:16.595Z,3.20
2019-03-18T05:08:43.006Z,3.20
2019-03-18T05:11:09.531Z,3.20
2019-03-18T05:13:35.798Z,3.20
2019-03-18T05:16:02.054Z,3.20
2019-03-18T05:18:28.285Z,3.10
2019-03-18T05:20:54.477Z,3.00
2019-03-18T05:23:20.592Z,3.00
2019-03-18T05:25:46.670Z,3.00
2019-03-18T05:28:12.817Z,2.90
2019-03-18T05:30:38.903Z,2.90
2019-03-18T05:33:05.120Z,2.80
2019-03-18T05:35:31.282Z,2.80
2019-03-18T05:37:57.413Z,2.80
2019-03-18T05:40:23.513Z,2.90
2019-03-18T05:42:49.742Z,3.00
2019-03-18T05:45:15.990Z,3.00
2019-03-18T05:47:42.200Z,3.00
2019-03-18T05:50:09.819Z,2.90
2019-03-18T05:52:36.205Z,3.00
2019-03-18T05:55:03.529Z,3.00
2019-03-18T05:57:29.672Z,3.00
2019-03-18T05:59:55.953Z,2.90
2019-03-18T06:02:22.099Z,2.80
2019-03-18T06:04:48.175Z,2.90
2019-03-18T06:07:14.268Z,2.90
2019-03-18T06:09:40.423Z,2.90
2019-03-18T06:12:06.503Z,3.00
2019-03-18T06:14:32.640Z,3.00
2019-03-18T06:16:58.744Z,3.00
2019-03-18T06:19:25.010Z,3.00
2019-03-18T06:21:51.177Z,3.00
2019-03-18T06:24:17.297Z,3.00
2019-03-18T06:26:43.417Z,3.00
2019-03-18T06:29:09.511Z,3.00
2019-03-18T06:31:35.635Z,3.10
2019-03-18T06:34:01.965Z,3.20
2019-03-18T06:36:28.067Z,3.20
2019-03-18T06:38:54.418Z,3.20
2019-03-18T06:41:20.570Z,3.10
2019-03-18T06:43:46.721Z,3.30
2019-03-18T06:46:12.943Z,3.50
2019-03-18T06:48:39.037Z,3.80
2019-03-18T06:51:05.409Z,4.00
2019-03-18T06:53:31.547Z,4.20
2019-03-18T06:55:57.971Z,4.10
2019-03-18T06:58:24.044Z,4.10
2019-03-18T07:00:50.128Z,4.10
2019-03-18T07:03:16.267Z,4.20
2019-03-18T07:05:42.405Z,4.20
2019-03-18T07:08:08.580Z,4.20
2019-03-18T07:10:34.958Z,4.30
2019-03-18T07:13:01.123Z,4.20
2019-03-18T07:15:27.202Z,4.30
2019-03-18T07:17:53.357Z,4.20
2019-03-18T07:20:19.541Z,4.30
2019-03-18T07:22:46.067Z,4.40
2019-03-18T07:25:12.452Z,4.50
2019-03-18T07:27:38.561Z,4.50
2019-03-18T07:30:07.784Z,4.40
2019-03-18T07:32:33.987Z,4.50
2019-03-18T07:35:00.099Z,4.60
2019-03-18T07:37:26.272Z,4.70
2019-03-18T07:39:52.359Z,4.70
2019-03-18T07:42:18.508Z,4.70
2019-03-18T07:44:44.848Z,4.50
2019-03-18T07:47:10.933Z,4.40
2019-03-18T07:49:37.058Z,4.50
2019-03-18T07:52:03.236Z,4.50
2019-03-18T07:54:33.114Z,4.50
2019-03-18T07:56:57.579Z,4.50
2019-03-18T07:59:23.761Z,4.40
2019-03-18T08:01:49.867Z,4.50
2019-03-18T08:04:16.119Z,4.60
2019-03-18T08:06:42.200Z,4.60
2019-03-18T08:09:08.347Z,4.70
2019-03-18T08:11:34.723Z,4.70
2019-03-18T08:14:00.815Z,4.80
2019-03-18T08:16:26.969Z,4.70
2019-03-18T08:18:53.112Z,4.70
2019-03-18T08:21:19.217Z,4.80
2019-03-18T08:23:45.325Z,4.70
2019-03-18T08:26:11.415Z,5.10
2019-03-18T08:28:39.722Z,5.40
2019-03-18T08:31:05.861Z,5.60
2019-03-18T08:33:31.939Z,5.70
2019-03-18T08:35:58.132Z,5.70
2019-03-18T08:38:24.313Z,5.70
2019-03-18T08:40:50.464Z,5.80
2019-03-18T08:43:16.972Z,6.00
2019-03-18T08:45:43.104Z,5.80
2019-03-18T08:48:09.176Z,5.80
2019-03-18T08:50:35.316Z,6.30
2019-03-18T08:53:01.514Z,6.70
2019-03-18T08:55:28.070Z,6.70
2019-03-18T08:57:54.444Z,6.60
2019-03-18T09:00:20.816Z,6.40
2019-03-18T09:02:46.907Z,6.40
2019-03-18T09:05:13.130Z,6.00
2019-03-18T09:07:39.227Z,5.80
2019-03-18T09:10:13.399Z,6.20
2019-03-18T09:12:39.648Z,6.40
2019-03-18T09:15:07.933Z,6.10
2019-03-18T09:17:34.125Z,6.30
2019-03-18T09:20:00.403Z,6.20
2019-03-18T09:22:26.480Z,5.90
2019-03-18T09:24:52.621Z,5.90
2019-03-18T09:27:18.792Z,6.10
2019-03-18T09:29:44.942Z,6.30
2019-03-18T09:32:11.062Z,6.20
2019-03-18T09:34:37.465Z,6.00
2019-03-18T09:37:03.541Z,6.20
2019-03-18T09:39:29.670Z,6.10
2019-03-18T09:41:55.811Z,6.10
2019-03-18T09:44:22.105Z,6.50
2019-03-18T09:46:48.200Z,6.80
2019-03-18T09:49:21.727Z,7.40
2019-03-18T09:51:42.382Z,7.70
2019-03-18T09:54:08.561Z,8.00
2019-03-18T09:56:34.696Z,8.40
2019-03-18T09:59:00.908Z,7.80
2019-03-18T10:01:26.984Z,7.20
2019-03-18T10:03:53.122Z,7.30
2019-03-18T10:06:19.193Z,7.50
2019-03-18T10:08:45.334Z,7.90
2019-03-18T10:11:11.455Z,7.50
2019-03-18T10:13:37.661Z,7.40
2019-03-18T10:16:03.871Z,7.10
2019-03-18T10:18:30.142Z,7.40
2019-03-18T10:20:56.563Z,7.70
2019-03-18T10:23:22.699Z,8.00
2019-03-18T10:25:48.930Z,7.90
2019-03-18T10:28:16.551Z,8.80
2019-03-18T10:30:42.824Z,9.20
2019-03-18T10:33:08.911Z,9.20
2019-03-18T10:35:35.079Z,8.90
2019-03-18T10:38:01.164Z,8.70
2019-03-18T10:40:27.299Z,8.50
2019-03-18T10:42:53.438Z,8.10
2019-03-18T10:45:19.511Z,7.60
2019-03-18T10:47:45.846Z,7.60
2019-03-18T10:50:13.377Z,7.60
2019-03-18T10:52:39.516Z,7.90
2019-03-18T10:55:07.671Z,8.00
2019-03-18T10:57:33.846Z,7.90
2019-03-18T11:00:01.342Z,8.20
2019-03-18T11:02:27.977Z,8.20
2019-03-18T11:04:54.144Z,7.90
2019-03-18T11:07:20.286Z,7.90
2019-03-18T11:09:46.749Z,7.90
2019-03-18T11:12:12.869Z,7.80
2019-03-18T11:14:38.990Z,7.80
2019-03-18T11:17:05.197Z,7.60
2019-03-18T11:19:31.313Z,7.40
2019-03-18T11:21:57.433Z,7.50
2019-03-18T11:24:23.629Z,7.60
2019-03-18T11:26:49.719Z,7.80
2019-03-18T11:29:15.811Z,7.70
2019-03-18T11:31:41.940Z,7.70
2019-03-18T11:34:08.183Z,7.70
2019-03-18T11:36:34.328Z,7.60
2019-03-18T11:39:00.453Z,7.50
2019-03-18T11:41:26.649Z,7.40
2019-03-18T11:43:52.782Z,7.20
2019-03-18T11:46:18.981Z,7.00
2019-03-18T11:48:45.057Z,7.00
2019-03-18T11:51:11.313Z,7.10
2019-03-18T11:53:38.386Z,7.20
2019-03-18T11:56:04.744Z,7.30
2019-03-18T11:58:30.900Z,7.20
2019-03-18T12:00:57.049Z,7.00
2019-03-18T12:03:23.145Z,7.00
2019-03-18T12:05:49.231Z,7.00
2019-03-18T12:08:15.360Z,7.10
2019-03-18T12:10:41.665Z,7.00
2019-03-18T12:13:07.793Z,7.20
2019-03-18T12:15:36.369Z,7.20
2019-03-18T12:18:02.124Z,7.60
2019-03-18T12:20:28.282Z,7.80
2019-03-18T12:22:54.472Z,7.80
2019-03-18T12:25:20.658Z,7.60
2019-03-18T12:27:46.975Z,7.40
2019-03-18T12:30:21.827Z,7.60
2019-03-18T12:32:48.182Z,7.60
2019-03-18T12:35:14.659Z,7.70
2019-03-18T12:37:40.829Z,7.80
2019-03-18T12:40:14.453Z,7.90
2019-03-18T12:42:40.741Z,8.10
2019-03-18T12:45:09.674Z,8.20
2019-03-18T12:47:36.080Z,8.20
2019-03-18T12:50:05.391Z,8.30
2019-03-18T12:52:31.552Z,8.50
2019-03-18T12:54:57.704Z,8.70
2019-03-18T12:57:23.887Z,9.10
2019-03-18T12:59:49.966Z,9.20
2019-03-18T13:02:16.267Z,9.10
2019-03-18T13:04:42.363Z,8.80
2019-03-18T13:07:08.750Z,8.70
2019-03-18T13:09:34.902Z,8.70
2019-03-18T13:12:01.134Z,8.40
2019-03-18T13:14:27.321Z,8.20
2019-03-18T13:16:53.437Z,8.90
2019-03-18T13:19:19.584Z,9.10
2019-03-18T13:21:45.658Z,8.50
2019-03-18T13:24:12.019Z,8.30
2019-03-18T13:26:38.174Z,8.00
2019-03-18T13:29:04.390Z,8.00
2019-03-18T13:31:30.534Z,8.00
2019-03-18T13:33:56.704Z,7.80
2019-03-18T13:36:25.299Z,7.90
2019-03-18T13:38:50.936Z,8.00
2019-03-18T13:41:17.088Z,7.90
2019-03-18T13:43:43.301Z,7.80
2019-03-18T13:46:09.394Z,7.80
2019-03-18T13:48:35.518Z,7.90
2019-03-18T13:51:01.625Z,7.80
2019-03-18T13:53:27.708Z,7.80
2019-03-18T13:55:53.830Z,7.70
2019-03-18T13:58:19.928Z,7.80
2019-03-18T14:00:46.183Z,7.90
2019-03-18T14:03:12.322Z,7.90
2019-03-18T14:05:38.526Z,8.00
2019-03-18T14:08:04.775Z,7.90
2019-03-18T14:10:30.969Z,7.90
2019-03-18T14:12:57.404Z,8.00
2019-03-18T14:15:24.228Z,8.10
2019-03-18T14:17:50.528Z,8.10
2019-03-18T14:20:22.399Z,8.10
2019-03-18T14:22:48.766Z,8.00
2019-03-18T14:25:15.060Z,8.10
2019-03-18T14:27:41.250Z,7.90
2019-03-18T14:30:11.176Z,7.90
2019-03-18T14:32:37.332Z,7.90
2019-03-18T14:35:04.890Z,8.00
2019-03-18T14:37:34.071Z,7.70
2019-03-18T14:40:00.367Z,8.50
2019-03-18T14:42:26.614Z,9.40
2019-03-18T14:44:52.702Z,9.70
2019-03-18T14:47:18.827Z,11.30
2019-03-18T14:49:46.372Z,11.70
2019-03-18T14:52:12.705Z,12.10
2019-03-18T14:54:39.008Z,11.70
2019-03-18T14:57:05.191Z,10.90
2019-03-18T14:59:31.332Z,10.50
2019-03-18T15:01:57.457Z,11.70
2019-03-18T15:04:23.670Z,11.90
2019-03-18T15:06:49.813Z,11.60
2019-03-18T15:09:15.908Z,12.00
2019-03-18T15:11:42.424Z,12.70
2019-03-18T15:14:08.576Z,13.90
2019-03-18T15:16:34.676Z,14.50
2019-03-18T15:19:00.825Z,15.90
2019-03-18T15:21:26.908Z,16.30
2019-03-18T15:23:52.976Z,14.80
2019-03-18T15:26:19.093Z,14.70
2019-03-18T15:28:45.222Z,14.10
2019-03-18T15:31:11.354Z,13.10
2019-03-18T15:33:37.548Z,12.10
2019-03-18T15:36:03.661Z,10.90
2019-03-18T15:38:29.928Z,10.60
2019-03-18T15:40:56.055Z,10.20
2019-03-18T15:43:22.131Z,9.90
2019-03-18T15:45:49.037Z,9.60
2019-03-18T15:48:15.252Z,9.20
2019-03-18T15:50:41.466Z,9.10
2019-03-18T15:53:07.652Z,9.00
2019-03-18T15:55:33.868Z,8.70
2019-03-18T15:58:00.150Z,8.50
2019-03-18T16:00:28.966Z,8.20
2019-03-18T16:02:55.077Z,8.20
2019-03-18T16:05:21.206Z,8.10
2019-03-18T16:07:47.716Z,8.20
2019-03-18T16:10:15.002Z,8.30
2019-03-18T16:12:41.528Z,8.40
2019-03-18T16:15:09.917Z,8.30
2019-03-18T16:17:36.407Z,8.30
2019-03-18T16:20:05.637Z,8.20
2019-03-18T16:22:31.868Z,8.20
2019-03-18T16:24:58.068Z,8.00
2019-03-18T16:27:24.474Z,8.00
2019-03-18T16:29:50.687Z,7.90
2019-03-18T16:32:16.763Z,7.80
2019-03-18T16:34:42.993Z,7.70
2019-03-18T16:37:09.189Z,7.60
2019-03-18T16:39:35.335Z,7.50
2019-03-18T16:42:01.505Z,7.50
2019-03-18T16:44:27.616Z,7.40
2019-03-18T16:46:53.738Z,7.30
2019-03-18T16:49:19.830Z,7.30
2019-03-18T16:51:45.976Z,7.20
2019-03-18T16:54:12.528Z,7.30
2019-03-18T16:56:38.722Z,7.10
2019-03-18T16:59:04.814Z,7.10
2019-03-18T17:01:30.953Z,7.10
2019-03-18T17:03:57.167Z,7.00
2019-03-18T17:06:23.301Z,6.90
2019-03-18T17:08:49.405Z,6.80
2019-03-18T17:11:15.505Z,6.80
2019-03-18T17:13:41.631Z,6.60
2019-03-18T17:16:07.840Z,6.30
2019-03-18T17:18:33.952Z,6.20
2019-03-18T17:21:00.120Z,6.00
2019-03-18T17:23:26.303Z,6.00
2019-03-18T17:25:52.426Z,5.90
2019-03-18T17:28:18.670Z,5.80
2019-03-18T17:30:44.891Z,5.80
2019-03-18T17:33:11.114Z,5.90
2019-03-18T17:35:37.671Z,5.90
2019-03-18T17:38:03.864Z,6.00
2019-03-18T17:40:29.988Z,6.00
2019-03-18T17:42:56.271Z,5.90
2019-03-18T17:45:22.390Z,5.80
2019-03-18T17:47:48.625Z,5.90
2019-03-18T17:50:23.289Z,6.00
2019-03-18T17:53:01.841Z,5.90
2019-03-18T17:55:17.518Z,6.00
2019-03-18T17:57:43.722Z,5.90
2019-03-18T18:00:14.052Z,5.90
2019-03-18T18:02:40.131Z,5.90
2019-03-18T18:05:06.405Z,5.70
2019-03-18T18:07:32.729Z,5.70
2019-03-18T18:09:58.991Z,5.90
2019-03-18T18:12:25.163Z,5.80
2019-03-18T18:14:51.264Z,5.70
2019-03-18T18:17:24.971Z,5.50
2019-03-18T18:19:51.132Z,5.60
2019-03-18T18:22:17.240Z,5.40
2019-03-18T18:24:43.621Z,5.50
2019-03-18T18:27:09.692Z,5.40
2019-03-18T18:29:35.832Z,5.30
2019-03-18T18:32:01.899Z,5.30
2019-03-18T18:34:28.069Z,5.30
2019-03-18T18:36:54.212Z,5.20
2019-03-18T18:39:20.284Z,5.10
2019-03-18T18:41:46.391Z,4.90
2019-03-18T18:44:12.458Z,4.90
2019-03-18T18:46:38.627Z,4.70
2019-03-18T18:49:04.801Z,4.60
2019-03-18T18:51:30.892Z,4.60
2019-03-18T18:53:56.967Z,4.80
2019-03-18T18:56:23.114Z,4.90
2019-03-18T18:58:49.240Z,4.70
2019-03-18T19:01:15.476Z,4.70
2019-03-18T19:03:41.649Z,4.60
2019-03-18T19:06:07.785Z,4.50
2019-03-18T19:08:33.868Z,4.40
2019-03-18T19:10:59.976Z,4.40
2019-03-18T19:13:26.078Z,4.40
2019-03-18T19:15:52.171Z,4.40
2019-03-18T19:18:18.328Z,4.50
2019-03-18T19:20:44.548Z,4.60
2019-03-18T19:23:10.700Z,4.50
2019-03-18T19:25:37.021Z,4.50
2019-03-18T19:28:06.840Z,4.60
2019-03-18T19:30:33.186Z,4.60
2019-03-18T19:32:59.408Z,4.60
2019-03-18T19:35:25.594Z,4.60
2019-03-18T19:37:51.799Z,4.50
2019-03-18T19:40:20.633Z,4.60
2019-03-18T19:42:46.734Z,4.70
2019-03-18T19:45:13.139Z,4.70
2019-03-18T19:47:39.423Z,4.70
2019-03-18T19:50:11.771Z,4.60
2019-03-18T19:52:37.894Z,4.70
2019-03-18T19:55:05.460Z,4.70
2019-03-18T19:57:31.639Z,4.60
2019-03-18T19:59:57.921Z,4.50
2019-03-18T20:02:24.090Z,4.30
2019-03-18T20:04:50.212Z,4.40
2019-03-18T20:07:16.358Z,4.30
2019-03-18T20:09:42.566Z,4.30
2019-03-18T20:12:08.727Z,4.30
2019-03-18T20:14:34.972Z,4.30
2019-03-18T20:17:01.166Z,4.40
2019-03-18T20:19:27.292Z,4.40
2019-03-18T20:21:53.503Z,4.40
2019-03-18T20:24:19.579Z,4.30
2019-03-18T20:26:45.722Z,4.30
2019-03-18T20:29:11.943Z,4.40
2019-03-18T20:31:38.133Z,4.30
2019-03-18T20:34:04.224Z,4.30
2019-03-18T20:36:30.388Z,4.40
2019-03-18T20:38:56.609Z,4.50
2019-03-18T20:41:22.776Z,4.50
2019-03-18T20:43:48.974Z,4.30
2019-03-18T20:46:15.192Z,4.10
2019-03-18T20:48:41.415Z,4.10
2019-03-18T20:51:07.560Z,3.90
2019-03-18T20:53:33.801Z,3.90
2019-03-18T20:56:00.040Z,3.90
2019-03-18T20:58:26.278Z,3.80
2019-03-18T21:00:53.095Z,3.80
2019-03-18T21:03:24.316Z,3.90
2019-03-18T21:05:51.065Z,3.80
2019-03-18T21:08:17.323Z,3.70
2019-03-18T21:10:43.613Z,3.80
2019-03-18T21:13:09.705Z,3.70
2019-03-18T21:15:35.957Z,3.70
2019-03-18T21:18:02.233Z,3.60
2019-03-18T21:20:28.543Z,3.70
2019-03-18T21:22:54.779Z,3.60
2019-03-18T21:25:20.891Z,3.40
2019-03-18T21:27:47.181Z,3.50
2019-03-18T21:30:18.729Z,3.60
2019-03-18T21:32:45.094Z,3.50
2019-03-18T21:35:11.325Z,3.40
2019-03-18T21:37:37.510Z,3.30
2019-03-18T21:40:09.726Z,3.30
2019-03-18T21:42:35.797Z,3.30
2019-03-18T21:45:04.407Z,3.40
2019-03-18T21:47:30.531Z,3.40
2019-03-18T21:49:56.609Z,3.30
2019-03-18T21:52:22.709Z,3.30
2019-03-18T21:54:48.840Z,3.30
2019-03-18T21:57:15.032Z,3.50
2019-03-18T21:59:41.146Z,3.40
2019-03-18T22:02:07.278Z,3.50
2019-03-18T22:04:34.088Z,3.40
2019-03-18T22:07:00.331Z,3.30
2019-03-18T22:09:26.502Z,3.20
2019-03-18T22:11:52.623Z,3.20
2019-03-18T22:14:19.188Z,3.00
2019-03-18T22:16:45.623Z,3.20
2019-03-18T22:19:11.755Z,3.10
2019-03-18T22:21:37.892Z,3.10
2019-03-18T22:24:04.203Z,3.10
2019-03-18T22:26:30.410Z,3.10
2019-03-18T22:28:56.573Z,3.00
2019-03-18T22:31:22.728Z,2.80
2019-03-18T22:33:48.893Z,2.80
2019-03-18T22:36:15.096Z,2.70
2019-03-18T22:38:41.493Z,2.60
2019-03-18T22:41:07.595Z,2.60
2019-03-18T22:43:33.682Z,2.60
2019-03-18T22:45:59.744Z,2.40
2019-03-18T22:48:25.823Z,2.50
2019-03-18T22:50:52.014Z,2.40
2019-03-18T22:53:18.490Z,2.30
2019-03-18T22:55:44.668Z,2.20
2019-03-18T22:58:10.792Z,2.30
2019-03-18T23:00:39.008Z,2.20
2019-03-18T23:03:05.114Z,2.00
2019-03-18T23:05:31.320Z,2.00
2019-03-18T23:07:57.445Z,1.90
2019-03-18T23:10:23.536Z,1.80
2019-03-18T23:12:49.618Z,1.80
2019-03-18T23:15:15.804Z,1.70
2019-03-18T23:17:41.947Z,1.70
2019-03-18T23:20:08.123Z,1.70
2019-03-18T23:22:34.274Z,1.90
2019-03-18T23:25:06.911Z,1.80
2019-03-18T23:27:28.430Z,1.70
2019-03-18T23:29:54.502Z,1.70
2019-03-18T23:32:20.655Z,1.70
2019-03-18T23:34:46.780Z,1.60
2019-03-18T23:37:13.026Z,1.60
2019-03-18T23:39:39.094Z,1.80
2019-03-18T23:42:05.264Z,1.80
2019-03-18T23:44:31.793Z,1.80
2019-03-18T23:46:57.956Z,1.70
2019-03-18T23:49:24.168Z,1.70
2019-03-18T23:51:50.288Z,1.60
2019-03-18T23:54:16.475Z,1.70
2019-03-18T23:56:42.550Z,1.50
2019-03-18T23:59:08.668Z,1.40
